createdAt,value
2023-03-26T00:02:34.061Z,11.52
2023-03-26T00:05:20.198Z,11.49
2023-03-26T00:08:08.898Z,11.41
2023-03-26T00:10:54.819Z,11.46
2023-03-26T00:13:43.889Z,11.42
2023-03-26T00:16:31.356Z,11.39
2023-03-26T00:19:17.316Z,11.37
2023-03-26T00:22:03.876Z,11.39
2023-03-26T00:24:51.316Z,11.41
2023-03-26T00:27:38.168Z,11.43
2023-03-26T00:30:24.003Z,11.45
2023-03-26T00:33:11.959Z,11.44
2023-03-26T00:36:02.457Z,11.44
2023-03-26T00:38:49.968Z,11.43
2023-03-26T00:41:37.187Z,11.40
2023-03-26T00:44:23.627Z,11.42
2023-03-26T00:47:09.070Z,11.41
2023-03-26T00:49:55.114Z,11.43
2023-03-26T00:52:43.930Z,11.39
2023-03-26T00:56:01.677Z,11.39
2023-03-26T00:58:50.166Z,11.41
2023-03-26T01:01:59.150Z,11.36
2023-03-26T01:04:57.705Z,11.27
2023-03-26T01:07:50.425Z,11.29
2023-03-26T01:10:41.145Z,11.30
2023-03-26T01:13:27.173Z,11.27
2023-03-26T01:16:27.280Z,11.26
2023-03-26T01:19:44.831Z,11.27
2023-03-26T01:22:30.709Z,11.27
2023-03-26T01:25:17.156Z,11.25
2023-03-26T01:28:06.050Z,11.15
2023-03-26T01:31:01.458Z,11.14
2023-03-26T01:33:54.987Z,11.09
2023-03-26T01:36:55.913Z,11.02
2023-03-26T01:40:07.076Z,10.90
2023-03-26T01:43:32.310Z,10.82
2023-03-26T01:46:19.529Z,10.74
2023-03-26T01:49:12.986Z,10.67
2023-03-26T01:51:59.417Z,10.62
2023-03-26T01:54:46.735Z,10.58
2023-03-26T01:57:47.495Z,10.54
2023-03-26T02:00:37.696Z,10.39
2023-03-26T02:03:34.394Z,10.35
2023-03-26T02:06:25.865Z,10.30
2023-03-26T02:09:16.141Z,10.28
2023-03-26T02:12:03.911Z,10.24
2023-03-26T02:14:50.004Z,10.21
2023-03-26T02:17:40.402Z,10.15
2023-03-26T02:20:30.150Z,10.04
2023-03-26T02:23:15.835Z,10.00
2023-03-26T02:26:10.420Z,9.98
2023-03-26T02:29:08.731Z,9.93
2023-03-26T02:31:56.406Z,9.93
2023-03-26T02:34:42.986Z,9.90
2023-03-26T02:37:30.473Z,9.87
2023-03-26T02:40:25.185Z,9.86
2023-03-26T02:43:11.296Z,9.82
2023-03-26T02:45:58.578Z,9.81
2023-03-26T02:49:05.505Z,9.78
2023-03-26T02:51:56.193Z,9.77
2023-03-26T02:54:45.664Z,9.79
2023-03-26T02:57:41.634Z,9.79
2023-03-26T03:00:36.560Z,9.76
2023-03-26T03:03:49.357Z,9.71
2023-03-26T03:06:57.697Z,9.68
2023-03-26T03:09:46.448Z,9.66
2023-03-26T03:12:53.102Z,9.61
2023-03-26T03:15:39.188Z,9.58
2023-03-26T03:18:25.161Z,9.56
2023-03-26T03:21:11.077Z,9.57
2023-03-26T03:23:59.797Z,9.61
2023-03-26T03:26:56.891Z,9.63
2023-03-26T03:29:55.880Z,9.65
2023-03-26T03:33:02.477Z,9.70
2023-03-26T03:35:50.389Z,9.72
2023-03-26T03:38:38.404Z,9.73
2023-03-26T03:41:24.690Z,9.69
2023-03-26T03:44:10.451Z,9.79
2023-03-26T03:46:57.077Z,9.78
2023-03-26T03:49:42.983Z,9.81
2023-03-26T03:52:29.176Z,9.84
2023-03-26T03:55:15.541Z,9.85
2023-03-26T03:58:09.430Z,9.82
2023-03-26T04:01:00.950Z,9.79
2023-03-26T04:04:19.226Z,9.77
2023-03-26T04:07:17.382Z,9.74
2023-03-26T04:10:21.411Z,9.66
2023-03-26T04:13:25.791Z,9.58
2023-03-26T04:16:33.730Z,9.64
2023-03-26T04:19:19.934Z,9.62
2023-03-26T04:22:06.533Z,9.57
2023-03-26T04:24:58.407Z,9.48
2023-03-26T04:27:50.663Z,9.41
2023-03-26T04:31:00.945Z,9.32
2023-03-26T04:34:09.794Z,9.27
2023-03-26T04:37:03.541Z,9.15
2023-03-26T04:39:54.462Z,9.27
2023-03-26T04:42:58.410Z,9.26
2023-03-26T04:46:04.564Z,9.24
2023-03-26T04:48:56.887Z,9.19
2023-03-26T04:51:46.238Z,9.08
2023-03-26T04:54:52.082Z,9.00
2023-03-26T04:57:46.181Z,9.00
2023-03-26T05:00:57.905Z,9.00
2023-03-26T05:03:45.962Z,8.99
2023-03-26T05:06:34.490Z,8.99
2023-03-26T05:09:26.781Z,8.99
2023-03-26T05:12:45.013Z,9.00
2023-03-26T05:15:41.389Z,8.98
2023-03-26T05:18:32.420Z,8.95
2023-03-26T05:21:19.827Z,9.00
2023-03-26T05:24:06.460Z,8.99
2023-03-26T05:26:52.268Z,9.00
2023-03-26T05:29:41.967Z,8.97
2023-03-26T05:32:28.279Z,8.92
2023-03-26T05:35:16.986Z,8.92
2023-03-26T05:38:03.090Z,8.95
2023-03-26T05:40:48.754Z,8.94
2023-03-26T05:43:38.001Z,8.94
2023-03-26T05:46:30.613Z,8.98
2023-03-26T05:49:18.187Z,9.00
2023-03-26T05:52:03.916Z,9.00
2023-03-26T05:55:09.601Z,9.06
2023-03-26T05:58:32.941Z,9.08
2023-03-26T06:01:38.636Z,9.13
2023-03-26T06:04:57.236Z,9.17
2023-03-26T06:08:01.324Z,9.20
2023-03-26T06:11:12.745Z,9.24
2023-03-26T06:13:58.968Z,9.32
2023-03-26T06:16:45.358Z,9.41
2023-03-26T06:19:36.920Z,9.42
2023-03-26T06:22:42.053Z,9.47
2023-03-26T06:25:51.344Z,9.48
2023-03-26T06:28:56.126Z,9.52
2023-03-26T06:32:12.503Z,9.57
2023-03-26T06:35:19.273Z,9.67
2023-03-26T06:38:05.336Z,9.70
2023-03-26T06:40:54.374Z,9.77
2023-03-26T06:43:46.454Z,9.82
2023-03-26T06:46:55.550Z,9.91
2023-03-26T06:50:00.239Z,9.99
2023-03-26T06:53:06.466Z,10.01
2023-03-26T06:56:03.319Z,10.13
2023-03-26T06:59:18.772Z,10.17
2023-03-26T07:02:24.552Z,10.24
2023-03-26T07:05:42.712Z,10.28
2023-03-26T07:08:47.913Z,10.38
2023-03-26T07:12:02.711Z,10.47
2023-03-26T07:15:20.654Z,10.57
2023-03-26T07:18:25.813Z,10.64
2023-03-26T07:21:12.925Z,10.73
2023-03-26T07:24:02.023Z,10.82
2023-03-26T07:27:17.087Z,10.88
2023-03-26T07:30:20.445Z,10.95
2023-03-26T07:34:02.443Z,11.03
2023-03-26T07:37:52.842Z,11.15
2023-03-26T07:40:38.962Z,11.28
2023-03-26T07:44:09.509Z,11.34
2023-03-26T07:46:57.244Z,11.46
2023-03-26T07:49:57.944Z,11.53
2023-03-26T07:53:04.317Z,11.63
2023-03-26T07:56:18.024Z,11.74
2023-03-26T07:59:46.047Z,11.85
2023-03-26T08:03:22.073Z,11.98
2023-03-26T08:06:26.347Z,12.10
2023-03-26T08:09:27.744Z,12.23
2023-03-26T08:13:04.749Z,12.33
2023-03-26T08:16:12.098Z,12.47
2023-03-26T08:19:19.954Z,12.60
2023-03-26T08:22:13.767Z,12.70
2023-03-26T08:25:02.595Z,12.76
2023-03-26T08:28:02.455Z,12.93
2023-03-26T08:30:48.689Z,13.06
2023-03-26T08:33:38.394Z,13.16
2023-03-26T08:36:24.209Z,13.30
2023-03-26T08:39:10.099Z,13.47
2023-03-26T08:42:11.373Z,13.69
2023-03-26T08:45:23.199Z,13.88
2023-03-26T08:48:21.236Z,14.05
2023-03-26T08:51:35.042Z,14.20
2023-03-26T08:54:42.269Z,14.37
2023-03-26T08:57:41.219Z,14.50
2023-03-26T09:00:48.880Z,14.60
2023-03-26T09:03:59.166Z,14.72
2023-03-26T09:06:45.415Z,14.85
2023-03-26T09:09:50.390Z,14.97
2023-03-26T09:12:57.513Z,15.00
2023-03-26T09:16:31.771Z,15.07
2023-03-26T09:19:55.258Z,15.19
2023-03-26T09:23:03.028Z,15.35
2023-03-26T09:26:08.992Z,15.51
2023-03-26T09:29:09.100Z,15.70
2023-03-26T09:32:32.482Z,15.89
2023-03-26T09:36:01.910Z,16.12
2023-03-26T09:39:04.174Z,16.28
2023-03-26T09:42:19.292Z,16.44
2023-03-26T09:45:16.830Z,16.59
2023-03-26T09:48:20.990Z,16.72
2023-03-26T09:51:41.615Z,16.88
2023-03-26T09:54:46.531Z,17.09
2023-03-26T09:57:41.535Z,17.31
2023-03-26T10:00:28.575Z,17.46
2023-03-26T10:03:17.795Z,17.58
2023-03-26T10:06:31.772Z,17.69
2023-03-26T10:09:23.043Z,17.82
2023-03-26T10:12:24.400Z,17.90
2023-03-26T10:15:25.388Z,18.00
2023-03-26T10:18:40.026Z,18.12
2023-03-26T10:21:36.034Z,18.26
2023-03-26T10:24:41.050Z,18.33
2023-03-26T10:28:03.529Z,18.47
2023-03-26T10:31:19.698Z,18.57
2023-03-26T10:34:32.985Z,18.71
2023-03-26T10:37:52.549Z,18.73
2023-03-26T10:41:15.211Z,18.76
2023-03-26T10:44:27.420Z,18.84
2023-03-26T10:47:47.043Z,18.94
2023-03-26T10:50:53.525Z,19.11
2023-03-26T10:53:51.115Z,19.28
2023-03-26T10:56:49.416Z,19.48
2023-03-26T10:59:35.283Z,19.65
2023-03-26T11:02:29.123Z,19.78
2023-03-26T11:05:39.902Z,20.03
2023-03-26T11:08:31.636Z,20.39
2023-03-26T11:11:42.256Z,20.88
2023-03-26T11:14:35.361Z,21.71
2023-03-26T11:17:41.186Z,22.84
2023-03-26T11:21:18.044Z,24.24
2023-03-26T11:24:26.131Z,25.58
2023-03-26T11:27:49.553Z,26.82
2023-03-26T11:30:41.454Z,27.83
2023-03-26T11:33:32.602Z,28.59
2023-03-26T11:36:26.312Z,29.31
2023-03-26T11:39:15.685Z,29.98
2023-03-26T11:42:11.256Z,30.67
2023-03-26T11:45:24.353Z,31.35
2023-03-26T11:48:32.030Z,31.53
2023-03-26T11:51:36.790Z,30.33
2023-03-26T11:54:22.847Z,29.32
2023-03-26T11:57:16.878Z,29.53
2023-03-26T12:00:16.608Z,29.65
2023-03-26T12:03:02.288Z,29.25
2023-03-26T12:05:59.080Z,29.44
2023-03-26T12:08:45.055Z,29.93
2023-03-26T12:11:35.839Z,30.63
2023-03-26T12:14:25.337Z,31.43
2023-03-26T12:17:31.359Z,31.99
2023-03-26T12:20:24.937Z,32.37
2023-03-26T12:23:35.079Z,32.07
2023-03-26T12:26:37.025Z,31.39
2023-03-26T12:29:23.305Z,31.07
2023-03-26T12:32:16.005Z,31.13
2023-03-26T12:35:07.547Z,30.71
2023-03-26T12:37:55.894Z,29.86
2023-03-26T12:40:43.194Z,28.80
2023-03-26T12:44:49.799Z,27.87
2023-03-26T12:47:57.366Z,26.77
2023-03-26T12:49:55.347Z,26.01
2023-03-26T12:53:09.067Z,25.81
2023-03-26T12:56:01.666Z,25.29
2023-03-26T12:59:06.727Z,24.72
2023-03-26T13:02:06.827Z,24.41
2023-03-26T13:05:09.764Z,24.39
2023-03-26T13:07:58.392Z,24.25
2023-03-26T13:11:05.869Z,24.01
2023-03-26T13:14:03.130Z,24.21
2023-03-26T13:17:04.965Z,24.98
2023-03-26T13:19:54.009Z,25.73
2023-03-26T13:23:02.148Z,26.17
2023-03-26T13:26:33.030Z,26.23
2023-03-26T13:29:36.637Z,26.10
2023-03-26T13:32:43.091Z,26.03
2023-03-26T13:35:39.296Z,26.29
2023-03-26T13:38:37.716Z,26.92
2023-03-26T13:41:32.304Z,27.84
2023-03-26T13:44:43.504Z,28.98
2023-03-26T13:47:31.626Z,29.74
2023-03-26T13:50:31.011Z,30.45
2023-03-26T13:53:22.299Z,30.11
2023-03-26T13:56:12.130Z,29.84
2023-03-26T13:59:02.228Z,30.01
2023-03-26T14:01:57.444Z,30.35
2023-03-26T14:04:48.602Z,30.75
2023-03-26T14:07:39.319Z,31.21
2023-03-26T14:10:28.947Z,31.70
2023-03-26T14:13:36.579Z,32.24
2023-03-26T14:16:42.446Z,32.45
2023-03-26T14:19:41.772Z,32.60
2023-03-26T14:22:30.620Z,32.74
2023-03-26T14:25:56.583Z,32.89
2023-03-26T14:28:57.845Z,32.54
2023-03-26T14:31:53.910Z,32.31
2023-03-26T14:34:55.807Z,32.23
2023-03-26T14:38:21.200Z,31.96
2023-03-26T14:41:24.741Z,31.54
2023-03-26T14:44:27.852Z,31.27
2023-03-26T14:47:22.801Z,30.77
2023-03-26T14:50:50.501Z,30.09
2023-03-26T14:53:51.670Z,28.98
2023-03-26T14:57:05.187Z,28.02
2023-03-26T15:00:15.793Z,27.00
2023-03-26T15:03:17.416Z,26.14
2023-03-26T15:06:34.245Z,25.41
2023-03-26T15:09:42.679Z,24.68
2023-03-26T15:13:10.183Z,24.09
2023-03-26T15:16:09.389Z,23.58
2023-03-26T15:19:31.701Z,23.19
2023-03-26T15:22:54.117Z,22.78
2023-03-26T15:26:04.487Z,22.48
2023-03-26T15:29:05.020Z,22.20
2023-03-26T15:32:09.034Z,21.95
2023-03-26T15:35:06.058Z,21.69
2023-03-26T15:38:24.406Z,21.44
2023-03-26T15:41:47.530Z,21.19
2023-03-26T15:44:54.396Z,21.00
2023-03-26T15:47:50.012Z,20.76
2023-03-26T15:51:02.302Z,20.59
2023-03-26T15:54:20.719Z,20.42
2023-03-26T15:57:39.237Z,20.27
2023-03-26T16:00:29.130Z,20.11
2023-03-26T16:03:25.599Z,20.04
2023-03-26T16:06:15.882Z,20.06
2023-03-26T16:09:29.037Z,20.01
2023-03-26T16:12:17.902Z,20.00
2023-03-26T16:15:25.175Z,19.86
2023-03-26T16:18:12.446Z,19.85
2023-03-26T16:21:31.390Z,19.78
2023-03-26T16:24:25.051Z,19.67
2023-03-26T16:27:34.327Z,19.58
2023-03-26T16:30:30.907Z,19.53
2023-03-26T16:33:21.291Z,19.43
2023-03-26T16:36:34.805Z,19.41
2023-03-26T16:39:39.244Z,19.33
2023-03-26T16:42:25.010Z,19.30
2023-03-26T16:45:50.029Z,19.19
2023-03-26T16:48:50.083Z,19.11
2023-03-26T16:51:55.686Z,19.04
2023-03-26T16:54:50.796Z,18.99
2023-03-26T16:57:43.934Z,18.94
2023-03-26T17:01:03.995Z,18.88
2023-03-26T17:04:00.847Z,18.85
2023-03-26T17:07:01.906Z,18.78
2023-03-26T17:10:14.585Z,18.77
2023-03-26T17:13:12.071Z,18.73
2023-03-26T17:16:26.475Z,18.67
2023-03-26T17:19:15.638Z,18.64
2023-03-26T17:22:21.583Z,18.57
2023-03-26T17:25:36.950Z,18.52
2023-03-26T17:28:37.855Z,18.50
2023-03-26T17:31:36.405Z,18.45
2023-03-26T17:35:03.680Z,18.40
2023-03-26T17:37:49.835Z,18.34
2023-03-26T17:40:48.096Z,18.27
2023-03-26T17:43:44.142Z,18.25
2023-03-26T17:46:50.271Z,18.13
2023-03-26T17:49:37.537Z,18.06
2023-03-26T17:52:36.390Z,18.00
2023-03-26T17:55:27.851Z,17.93
2023-03-26T17:58:44.710Z,17.91
2023-03-26T18:01:42.879Z,17.85
2023-03-26T18:04:35.726Z,17.87
2023-03-26T18:07:49.740Z,17.82
2023-03-26T18:10:41.363Z,17.78
2023-03-26T18:14:09.308Z,17.70
2023-03-26T18:17:00.102Z,17.64
2023-03-26T18:19:56.129Z,17.60
2023-03-26T18:22:44.822Z,17.54
2023-03-26T18:25:33.922Z,17.52
2023-03-26T18:28:29.492Z,17.46
2023-03-26T18:31:26.489Z,17.44
2023-03-26T18:34:18.556Z,17.42
2023-03-26T18:37:21.128Z,17.34
2023-03-26T18:40:19.243Z,17.34
2023-03-26T18:43:06.319Z,17.30
2023-03-26T18:45:53.559Z,17.22
2023-03-26T18:48:39.718Z,17.19
2023-03-26T18:51:26.585Z,17.14
2023-03-26T18:54:19.906Z,17.09
2023-03-26T18:57:15.493Z,17.07
2023-03-26T19:00:18.655Z,17.02
2023-03-26T19:03:07.025Z,17.02
2023-03-26T19:05:56.715Z,16.98
2023-03-26T19:08:44.865Z,16.89
2023-03-26T19:11:31.042Z,16.89
2023-03-26T19:14:19.421Z,16.85
2023-03-26T19:17:07.067Z,16.73
2023-03-26T19:19:54.964Z,16.74
2023-03-26T19:22:46.276Z,16.65
2023-03-26T19:25:39.314Z,16.62
2023-03-26T19:28:33.729Z,16.51
2023-03-26T19:31:23.817Z,16.47
2023-03-26T19:34:13.910Z,16.48
2023-03-26T19:37:01.938Z,16.47
2023-03-26T19:39:51.395Z,16.42
2023-03-26T19:42:43.766Z,16.38
2023-03-26T19:45:34.264Z,16.33
2023-03-26T19:48:45.331Z,16.32
2023-03-26T19:51:34.241Z,16.27
2023-03-26T19:54:20.468Z,16.23
2023-03-26T19:57:06.344Z,16.20
2023-03-26T19:59:52.282Z,16.16
2023-03-26T20:02:38.282Z,16.08
2023-03-26T20:05:27.502Z,16.07
2023-03-26T20:08:15.403Z,15.99
2023-03-26T20:11:01.443Z,16.02
2023-03-26T20:13:48.459Z,15.99
2023-03-26T20:16:35.310Z,15.95
2023-03-26T20:19:21.104Z,15.93
2023-03-26T20:22:12.505Z,15.88
2023-03-26T20:24:58.328Z,15.85
2023-03-26T20:27:55.283Z,15.78
2023-03-26T20:30:41.658Z,15.78
2023-03-26T20:33:28.000Z,15.72
2023-03-26T20:36:14.664Z,15.68
2023-03-26T20:39:22.362Z,15.61
2023-03-26T20:42:10.071Z,15.53
2023-03-26T20:44:56.754Z,15.53
2023-03-26T20:47:45.359Z,15.46
2023-03-26T20:50:35.691Z,15.43
2023-03-26T20:53:21.721Z,15.41
2023-03-26T20:56:17.775Z,15.35
2023-03-26T20:59:10.927Z,15.24
2023-03-26T21:01:58.168Z,15.21
2023-03-26T21:04:45.153Z,15.14
2023-03-26T21:07:31.336Z,15.09
2023-03-26T21:10:19.395Z,15.05
2023-03-26T21:13:32.681Z,14.95
2023-03-26T21:16:18.948Z,14.93
2023-03-26T21:19:05.709Z,14.94
2023-03-26T21:22:09.205Z,14.90
2023-03-26T21:25:17.288Z,14.89
2023-03-26T21:28:32.269Z,14.88
2023-03-26T21:31:31.124Z,14.82
2023-03-26T21:34:17.190Z,14.76
2023-03-26T21:37:03.658Z,14.66
2023-03-26T21:39:49.512Z,14.64
2023-03-26T21:42:36.202Z,14.57
2023-03-26T21:45:22.992Z,14.56
2023-03-26T21:48:10.504Z,14.54
2023-03-26T21:51:02.554Z,14.54
2023-03-26T21:53:49.003Z,14.53
2023-03-26T21:56:46.808Z,14.51
2023-03-26T21:59:39.753Z,14.48
2023-03-26T22:02:45.664Z,14.36
2023-03-26T22:05:42.037Z,14.30
2023-03-26T22:08:39.968Z,14.23
2023-03-26T22:11:26.121Z,14.19
2023-03-26T22:14:13.476Z,14.18
2023-03-26T22:16:59.222Z,14.13
2023-03-26T22:19:44.859Z,14.07
2023-03-26T22:22:30.890Z,14.08
2023-03-26T22:25:20.949Z,14.07
2023-03-26T22:28:07.103Z,14.08
2023-03-26T22:30:53.303Z,14.03
2023-03-26T22:33:43.014Z,13.96
2023-03-26T22:36:28.987Z,13.85
2023-03-26T22:39:14.778Z,13.77
2023-03-26T22:42:02.678Z,13.69
2023-03-26T22:44:48.576Z,13.60
2023-03-26T22:47:35.466Z,13.54
2023-03-26T22:50:21.982Z,13.53
2023-03-26T22:53:08.498Z,13.51
2023-03-26T22:55:54.287Z,13.53
2023-03-26T22:58:40.540Z,13.53
2023-03-26T23:01:26.487Z,13.52
2023-03-26T23:04:12.346Z,13.48
2023-03-26T23:07:17.202Z,13.51
2023-03-26T23:10:03.498Z,13.45
2023-03-26T23:12:49.851Z,13.47
2023-03-26T23:15:35.442Z,13.48
2023-03-26T23:18:22.515Z,13.43
2023-03-26T23:21:14.603Z,13.43
2023-03-26T23:24:00.493Z,13.38
2023-03-26T23:29:35.683Z,13.34
2023-03-26T23:32:25.207Z,13.31
2023-03-26T23:35:11.368Z,13.33
2023-03-26T23:37:57.102Z,13.34
2023-03-26T23:40:44.378Z,13.33
2023-03-26T23:43:54.137Z,13.29
2023-03-26T23:46:44.222Z,13.21
2023-03-26T23:49:30.135Z,13.17
2023-03-26T23:52:16.730Z,13.07
2023-03-26T23:55:02.721Z,13.03
2023-03-26T23:57:48.712Z,12.93
